Home > Products > Valid Products > TAF

000
FTUS41 KRLX 290500
TAFHTS
TAF
KHTS 290540Z 2906/3006 23004KT 4SM BR SCT050
      TEMPO 2906/2908 2SM BR
     FM290800 VRB03KT 1 1/2SM BR SCT035
     FM291200 31004KT 5SM BR SCT040
     FM291300 32004KT P6SM SCT045=



000
FTUS41 KRLX 290500
TAFCRW
TAF
KCRW 290540Z 2906/3006 00000KT P6SM SCT060 BKN080
     FM290700 00000KT 5SM BR SCT060
     FM290900 00000KT 2SM BR SCT060
     FM291000 00000KT 1 1/2SM BR SCT035
      TEMPO 2910/2912 1/2SM FG VV001
     FM291200 00000KT 1SM BR SCT070
     FM291230 00000KT P6SM SCT080
     FM291900 32004KT P6SM SCT045=



000
FTUS41 KRLX 290500
TAFPKB
TAF
KPKB 290540Z 2906/3006 00000KT P6SM SCT045
     FM290800 00000KT 5SM BR SCT040
     FM290900 00000KT 1 1/2SM BR SCT040
     FM291000 00000KT 1SM BR SCT050
     FM291200 00000KT 5SM BR SCT050
     FM291300 00000KT P6SM BKN060
     FM291700 30006KT P6SM SCT045
      AMD NOT SKED=



000
FTUS41 KRLX 290500
TAFCKB
TAF
KCKB 290540Z 2906/3006 00000KT 3SM BR SCT050
     FM291200 00000KT 5SM BR SCT080
     FM291300 00000KT P6SM SCT090
     FM291900 28006KT P6SM SCT040=



000
FTUS41 KRLX 290500
TAFEKN
TAF
KEKN 290540Z 2906/3006 00000KT 5SM BR BKN003 BKN060
      TEMPO 2906/2909 6SM BR SCT003 BKN060
     FM290900 00000KT 2SM BR SCT005 BKN040
     FM291200 VRB03KT 6SM BR SCT040
     FM291800 30007KT P6SM SCT045=



000
FTUS41 KRLX 290500
TAFBKW
TAF
KBKW 290540Z 2906/3006 31003KT P6SM SCT008 SCT015 OVC035
      TEMPO 2906/2909 BKN008 BKN015
     FM291200 29006KT P6SM SCT015
     FM291700 31007KT P6SM VCSH BKN040
     FM292200 33006KT P6SM SCT050=



000
FTUS41 KRLX 290200 AAA
TAFBKW
TAF AMD
KBKW 290238Z 2903/2924 00000KT P6SM SCT025 BKN080
     FM291000 00000KT P6SM BKN025
     FM291400 31004KT P6SM SCT030=



000
FTUS41 KRLX 290200 AAA
TAFEKN
TAF AMD
KEKN 290238Z 2903/2924 30009KT P6SM OVC060
     FM290600 00000KT 5SM BR SCT050
     FM290900 00000KT 1/4SM FG BKN001
     FM291300 00000KT 5SM BR SCT030
     FM291600 30004KT P6SM SCT050=



000
FTUS41 KRLX 290200 AAA
TAFPKB
TAF AMD
KPKB 290238Z 2903/2924 31004KT P6SM FEW040 SCT080
     FM290900 00000KT 4SM BR SCT040
     FM291100 00000KT 1/4SM FG BKN001
     FM291200 00000KT 3SM BR BKN001
     FM291300 00000KT P6SM SCT030
     FM291600 29004KT P6SM SCT050=



000
FTUS41 KRLX 290200 AAA
TAFHTS
TAF AMD
KHTS 290238Z 2903/2924 32004KT P6SM SCT040 BKN080
     FM290700 00000KT 4SM BR SCT045
     FM291000 00000KT 2SM BR BKN025
     FM291300 00000KT 5SM BR BKN025
     FM291400 VRB03KT P6SM SCT025
     FM292300 VRB03KT P6SM FEW050=



000
FTUS41 KRLX 290200 AAA
TAFCRW
TAF AMD
KCRW 290238Z 2903/2924 30004KT P6SM BKN035 BKN080
     FM290700 00000KT 4SM BR SCT045
     FM290900 00000KT 1/4SM FG BKN001
     FM291200 00000KT 5SM BR BKN001
     FM291300 00000KT 5SM BR SCT001
     FM291400 30004KT P6SM SCT045=



000
FTUS41 KRLX 290200 AAA
TAFCKB
TAF AMD
KCKB 290238Z 2903/2924 33005KT P6SM BKN040
     FM290800 00000KT 3SM BR SCT030
     FM291300 00000KT P6SM SCT040
     FM291700 30004KT P6SM SCT060=



000
FTUS41 KRLX 282300 RRA
TAFCKB
TAF
KCKB 282343Z 2900/2924 33005KT P6SM BKN040
     FM290800 00000KT 3SM BR SCT030
     FM291300 00000KT P6SM SCT040
     FM291700 30004KT P6SM SCT060=



000
FTUS41 KRLX 282300 RRA
TAFCRW
TAF
KCRW 282343Z 2900/2924 30004KT P6SM SCT025 SCT080
      TEMPO 2900/2901 3SM -SHRA BKN025 OVC080
     FM290700 00000KT 4SM BR SCT045
     FM290900 00000KT 1/4SM FG BKN001
     FM291200 00000KT 5SM BR BKN001
     FM291300 00000KT 5SM BR SCT001
     FM291400 30004KT P6SM SCT045=



000
FTUS41 KRLX 282300 RRA
TAFHTS
TAF
KHTS 282343Z 2900/2924 32004KT P6SM SCT040 BKN080
      TEMPO 2900/2901 3SM -SHRA BKN025 OVC080
     FM290700 00000KT 4SM BR SCT045
     FM291000 00000KT 2SM BR BKN025
     FM291300 00000KT 5SM BR BKN025
     FM291400 VRB03KT P6SM SCT025
     FM292300 VRB03KT P6SM FEW050=



000
FTUS41 KRLX 282300 RRA
TAFBKW
TAF
KBKW 282343Z 2900/2924 31007KT P6SM VCSH BKN025 OVC050
     FM290300 00000KT P6SM SCT025 BKN080
     FM291000 00000KT P6SM BKN025
     FM291400 31004KT P6SM SCT030=



000
FTUS41 KRLX 282300 RRA
TAFEKN
TAF
KEKN 282343Z 2900/2924 30009KT P6SM BKN025 OVC060
     FM290600 00000KT 5SM BR SCT050
     FM290900 00000KT 1/4SM FG BKN001
     FM291300 00000KT 5SM BR SCT030
     FM291600 30004KT P6SM SCT050=



000
FTUS41 KRLX 282300 RRA
TAFPKB
TAF
KPKB 282343Z 2900/2924 31004KT P6SM FEW040 SCT080
     FM290900 00000KT 4SM BR SCT040
     FM291100 00000KT 1/4SM FG BKN001
     FM291200 00000KT 3SM BR BKN001
     FM291300 00000KT P6SM SCT030
     FM291600 29004KT P6SM SCT050=



000
FTUS41 KRLX 282100 CCB
TAFCRW
TAF COR
KCRW 282153Z 2822/2918 29008KT P6SM SCT025 BKN050
      TEMPO 2822/2823 BKN025 OVC060
     FM290700 00000KT 4SM BR SCT040
     FM290900 00000KT 1/4SM FG VV001
     FM291300 00000KT 3SM BR FEW070
     FM291400 VRB03KT P6SM SCT040=



000
FTUS41 KRLX 282100 AAA
TAFBKW
TAF AMD
KBKW 282152Z 2822/2918 30011G15KT P6SM VCSH SCT025 BKN035
     FM290300 VRB03KT P6SM SCT040
     FM291400 31004KT P6SM SCT200
     FM291600 31006KT P6SM SCT040=



000
FTUS41 KRLX 282100 AAA
TAFPKB
TAF AMD
KPKB 282152Z 2822/2918 29009KT P6SM BKN035
     FM290700 00000KT 6SM BR SCT080
     FM290900 00000KT 1 1/2SM BR SCT080
     FM291100 00000KT 1/2SM FG FEW120
     FM291300 00000KT 3SM BR SCT150
     FM291400 00000KT P6SM SCT200
      AMD NOT SKED=



000
FTUS41 KRLX 282100 AAA
TAFHTS
TAF AMD
KHTS 282152Z 2822/2918 31009KT P6SM SCT025 OVC050
      TEMPO 2822/2823 -SHRA BKN025 OVC050
     FM290500 VRB03KT 5SM BR SCT080
     FM290800 VRB03KT 2SM BR SCT040
     FM290900 00000KT 1 1/2SM BR SCT040
     FM291100 00000KT 1/2SM FG VV001
     FM291300 00000KT 3SM BR FEW070
     FM291400 VRB03KT P6SM SCT200
     FM291600 30004KT P6SM SCT040=



000
FTUS41 KRLX 282100 AAA
TAFEKN
TAF AMD
KEKN 282152Z 2822/2918 30008KT P6SM VCSH BKN020 OVC030
     FM290500 31005KT 3SM BR BKN080
     FM290700 30004KT 1SM BR SCT003
     FM290800 VRB03KT 1/4SM FG SCT001
     FM291300 00000KT 3SM BR SCT070
     FM291400 31004KT P6SM BKN045=



000
FTUS41 KRLX 282100 AAB
TAFCKB
TAF AMD
KCKB 282152Z 2822/2918 26015G20KT P6SM VCSH BKN035
     FM290000 30005KT P6SM SCT035 BKN080
     FM290600 00000KT 5SM BR BKN040
     FM291100 00000KT 2SM BR SCT015
     FM291300 00000KT 3SM BR SCT070
     FM291400 00000KT P6SM SCT200
     FM291600 VRB03KT P6SM SCT040=



000
FTUS41 KRLX 282100 AAB
TAFCRW
TAF AMD
KCRW 282152Z 2822/2918 29008KT P6SM BKN050
     FM290700 00000KT 4SM BR SCT040
     FM290900 00000KT 1/4SM FG VV001
     FM291300 00000KT 3SM BR FEW070
     FM291400 VRB03KT P6SM SCT040=



000
FTUS41 KRLX 281800 AAA
TAFCKB
TAF AMD
KCKB 281841Z 2819/2918 26015G20KT P6SM VCTS BKN035CB
     FM290000 30005KT P6SM SCT035 BKN080
     FM290600 00000KT 5SM BR BKN040
     FM291100 00000KT 2SM BR SCT015
     FM291300 00000KT 3SM BR SCT070
     FM291400 00000KT P6SM SCT200
     FM291600 VRB03KT P6SM SCT040=



000
FTUS41 KRLX 281800 CCA
TAFCRW
TAF COR
KCRW 281839Z 2819/2918 31008G18KT P6SM VCTS BKN035CB
     FM282200 29008KT P6SM BKN050
     FM290700 00000KT 4SM BR SCT040
     FM290900 00000KT 1/4SM FG VV001
     FM291300 00000KT 3SM BR FEW070
     FM291400 VRB03KT P6SM SCT040=



000
FTUS41 KRLX 281800 AAA
TAFCRW
TAF AMD
KCRW 281836Z 2819/2918 26008G18KT P6SM VCTS BKN035CB
     FM282200 29008KT P6SM BKN050
     FM290700 00000KT 4SM BR SCT040
     FM290900 00000KT 1/4SM FG VV001
     FM291300 00000KT 3SM BR FEW070
     FM291400 VRB03KT P6SM SCT040=



000
FTUS41 KRLX 281700
TAFBKW
TAF
KBKW 281732Z 2818/2918 30011G15KT P6SM BKN035
     FM282000 31012G18KT P6SM VCTS BKN040CB
     FM282300 32008KT P6SM BKN080
     FM290800 VRB03KT P6SM SCT040
     FM291400 31004KT P6SM SCT200
     FM291600 31006KT P6SM SCT040=



000
FTUS41 KRLX 281700
TAFEKN
TAF
KEKN 281732Z 2818/2918 27010G17KT 6SM -SHRA VCTS FEW025 BKN035CB
     FM282300 29008KT P6SM -SHRA VCTS BKN040CB
     FM290500 31005KT 3SM BR BKN080
     FM290700 30004KT 1SM BR SCT003
     FM290800 VRB03KT 1/4SM FG SCT001
     FM291300 00000KT 3SM BR SCT070
     FM291400 31004KT P6SM BKN045=



000
FTUS41 KRLX 281700
TAFCKB
TAF
KCKB 281732Z 2818/2918 28015G20KT P6SM VCTS BKN025CB
     FM290000 30005KT P6SM SCT035 BKN080
     FM290600 00000KT 5SM BR BKN040
     FM291100 00000KT 2SM BR SCT015
     FM291300 00000KT 3SM BR SCT070
     FM291400 00000KT P6SM SCT200
     FM291600 VRB03KT P6SM SCT040=



000
FTUS41 KRLX 281700
TAFPKB
TAF
KPKB 281732Z 2818/2918 29009KT P6SM VCSH BKN035
     FM282200 29009KT P6SM BKN035
     FM290700 00000KT 6SM BR SCT080
     FM290900 00000KT 1 1/2SM BR SCT080
     FM291100 00000KT 1/2SM FG FEW120
     FM291300 00000KT 3SM BR SCT150
     FM291400 00000KT P6SM SCT200
      AMD NOT SKED=



000
FTUS41 KRLX 281700
TAFHTS
TAF
KHTS 281732Z 2818/2918 31009KT P6SM SCT025 OVC050
     FM290500 VRB03KT 5SM BR SCT080
     FM290800 VRB03KT 2SM BR SCT040
     FM290900 00000KT 1 1/2SM BR SCT040
     FM291100 00000KT 1/2SM FG VV001
     FM291300 00000KT 3SM BR FEW070
     FM291400 VRB03KT P6SM SCT200
     FM291600 30004KT P6SM SCT040=



000
FTUS41 KRLX 281700
TAFCRW
TAF
KCRW 281732Z 2818/2918 31008G18KT P6SM VCTS BKN025CB
     FM282200 31008KT P6SM BKN050
     FM290700 00000KT 4SM BR SCT040
     FM290900 00000KT 1/4SM FG VV001
     FM291300 00000KT 3SM BR FEW070
     FM291400 VRB03KT P6SM SCT040=



000
FTUS41 KRLX 281400 CCA
TAFCRW
TAF COR
KCRW 281437Z 2815/2912 27009KT P6SM OVC018
      TEMPO 2815/2818 SCT018
     FM281800 29010G16KT P6SM BKN045
     FM290000 31006KT P6SM BKN080
     FM290500 00000KT 5SM BR SCT080
     FM290700 00000KT 2SM BR SCT040
     FM290800 00000KT 1/4SM FG VV001=



000
FTUS41 KRLX 281400 AAA
TAFEKN
TAF AMD
KEKN 281436Z 2815/2912 28011G17KT P6SM VCSH BKN025
     FM281900 28011G17KT 5SM -SHRA VCTS BKN040CB
     FM282300 29007KT P6SM VCSH BKN060
     FM290100 29006KT P6SM BKN080
     FM290400 31005KT 3SM BR SCT080
     FM290600 30004KT 1SM BR SCT003
     FM290700 VRB03KT 1/4SM FG VV001=



000
FTUS41 KRLX 281400 AAA
TAFCKB
TAF AMD
KCKB 281436Z 2815/2912 28011G18KT P6SM VCSH SCT015 BKN018
      TEMPO 2815/2818 SCT025
     FM281800 27010G16KT 5SM -SHRA VCTS BKN040CB
     FM282200 30005KT P6SM BKN080
     FM290300 31004KT 5SM BR SCT080
     FM290800 00000KT 4SM BR SCT080
     FM291100 00000KT 2SM BR FEW080=



000
FTUS41 KRLX 281400 AAA
TAFBKW
TAF AMD
KBKW 281436Z 2815/2912 29012G19KT P6SM BKN035
     FM281600 30013G19KT P6SM BKN040
     FM282000 31012G18KT P6SM VCSH BKN040
     FM282300 32008KT P6SM BKN080
     FM290800 VRB03KT P6SM SCT040=



000
FTUS41 KRLX 281400 AAA
TAFHTS
TAF AMD
KHTS 281436Z 2815/2912 25006KT P6SM OVC018
      TEMPO 2815/2818 SCT180
     FM281800 29010G15KT P6SM BKN040
     FM290000 32006KT P6SM SCT080
     FM290300 VRB03KT 5SM BR SCT080
     FM290700 VRB03KT 2SM BR SCT040
     FM290900 00000KT 1/2SM FG VV001=



000
FTUS41 KRLX 281400 AAA
TAFCRW
TAF AMD
KCRW 281436Z 2815/2912 27009KT P6SM OVC180
      TEMPO 2815/2818 SCT180
     FM281800 29010G16KT P6SM BKN045
     FM290000 31006KT P6SM BKN080
     FM290500 00000KT 5SM BR SCT080
     FM290700 00000KT 2SM BR SCT040
     FM290800 00000KT 1/4SM FG VV001=



000
FTUS41 KRLX 281400 AAA
TAFPKB
TAF AMD
KPKB 281436Z 2815/2912 26008KT P6SM BKN020
     FM281600 29010G16KT P6SM SCT025
     FM281800 29011G16KT P6SM VCSH BKN035
     FM282100 30010G15KT P6SM BKN040
     FM290000 32006KT P6SM BKN080
     FM290700 00000KT 4SM BR SCT080
     FM290800 00000KT 1/2SM FG VV001
      AMD NOT SKED=



000
FTUS41 KRLX 281100
TAFCRW
TAF
KCRW 281130Z 2812/2912 27009KT P6SM SCT020 BKN070
     FM281800 29010G16KT P6SM BKN045
     FM290000 31006KT P6SM BKN080
     FM290500 00000KT 5SM BR SCT080
     FM290700 00000KT 2SM BR SCT040
     FM290800 00000KT 1/4SM FG VV001=



000
FTUS41 KRLX 281100
TAFEKN
TAF
KEKN 281130Z 2812/2912 25010G18KT P6SM SCT025
     FM281300 28011G17KT P6SM BKN025
     FM281700 28012G19KT P6SM VCSH BKN035
     FM281900 28011G17KT 5SM -SHRA VCTS BKN040CB
     FM282300 29007KT P6SM VCSH BKN060
     FM290100 29006KT P6SM BKN080
     FM290400 31005KT 3SM BR SCT080
     FM290600 30004KT 1SM BR SCT003
     FM290700 VRB03KT 1/4SM FG VV001=



000
FTUS41 KRLX 281100
TAFBKW
TAF
KBKW 281130Z 2812/2912 29010G15KT P6SM SCT022
     FM281400 29012G19KT P6SM BKN025
     FM281600 30013G19KT P6SM BKN040
     FM282000 31012G18KT P6SM VCSH BKN040
     FM282300 32008KT P6SM BKN080
     FM290800 VRB03KT P6SM SCT040=



000
FTUS41 KRLX 281100
TAFPKB
TAF
KPKB 281130Z 2812/2912 26008KT P6SM BKN020
     FM281600 29010G16KT P6SM SCT025
     FM281800 29011G16KT P6SM VCSH BKN035
     FM282100 30010G15KT P6SM BKN040
     FM290000 32006KT P6SM BKN080
     FM290700 00000KT 4SM BR SCT080
     FM290800 00000KT 1/2SM FG VV001
      AMD NOT SKED=



000
FTUS41 KRLX 281100
TAFCKB
TAF
KCKB 281130Z 2812/2912 26011G18KT P6SM SCT015 BKN025
     FM281600 26011G18KT P6SM SCT025
     FM281700 26011G16KT P6SM VCSH BKN035
     FM281900 27010G16KT 5SM -SHRA VCTS BKN040CB
     FM282200 30005KT P6SM BKN080
     FM290300 31004KT 5SM BR SCT080
     FM290800 00000KT 4SM BR SCT080
     FM291100 00000KT 2SM BR FEW080=



000
FTUS41 KRLX 281100
TAFHTS
TAF
KHTS 281130Z 2812/2912 25006KT P6SM SCT020
     FM281230 27008KT P6SM BKN020
     FM281500 29010KT P6SM SCT025
     FM281800 29010G15KT P6SM BKN040
     FM290000 32006KT P6SM SCT080
     FM290300 VRB03KT 5SM BR SCT080
     FM290700 VRB03KT 2SM BR SCT040
     FM290900 00000KT 1/2SM FG VV001=



000
FTUS41 KRLX 280900 AAA
TAFHTS
TAF AMD
KHTS 280905Z 2809/2906 26008KT P6SM SCT080
     FM281500 28010KT P6SM BKN030
     FM281700 29010G15KT P6SM BKN040
     FM290000 32006KT P6SM SCT060
     FM290300 VRB03KT 5SM BR SCT150=



000
FTUS41 KRLX 280900 AAA
TAFEKN
TAF AMD
KEKN 280905Z 2809/2906 24009KT P6SM FEW023 FEW040 SCT070
     FM281500 28012G18KT P6SM BKN025
     FM281700 28012G18KT P6SM VCTS BKN035CB
     FM281900 28011G17KT 4SM SHRA VCTS BKN035CB
     FM282300 29007KT P6SM BKN040
     FM290500 30003KT 6SM BR BKN050=



000
FTUS41 KRLX 280900 AAA
TAFCRW
TAF AMD
KCRW 280905Z 2809/2906 24011KT P6SM SCT070
     FM281300 27010G15KT P6SM BKN025
     FM281600 29011G16KT P6SM BKN040
     FM282300 31007KT P6SM BKN035
     FM290300 VRB03KT 5SM BR BKN040=



000
FTUS41 KRLX 280900 AAA
TAFPKB
TAF AMD
KPKB 280905Z 2809/2906 25007KT P6SM SCT080
     FM281100 26009KT P6SM BKN018
     FM281500 27010G15KT P6SM SCT020
     FM281800 29011G16KT P6SM VCTS BKN035CB
     FM282100 30009G14KT P6SM BKN035
     FM290100 33005KT P6SM BKN070
      AMD NOT SKED=



000
FTUS41 KRLX 280900 AAA
TAFCKB
TAF AMD
KCKB 280905Z 2809/2906 25007KT P6SM OVC014
     FM281500 26011G16KT P6SM BKN025
     FM281800 26011G16KT P6SM VCTS BKN035CB
     FM281900 27010G16KT 5SM SHRA VCTS BKN025CB
     FM282200 29007KT P6SM BKN040
     FM290300 31004KT 5SM BR BKN060=



000
FTUS41 KRLX 280900 AAA
TAFBKW
TAF AMD
KBKW 280905Z 2809/2906 26009KT P6SM FEW024
     FM281400 29011G18KT P6SM BKN035
     FM282000 31012G19KT P6SM VCSH BKN035
     FM282300 32008KT P6SM BKN050=



000
FTUS41 KRLX 280500
TAFPKB
TAF
KPKB 280538Z 2806/2906 24007KT P6SM SCT025
     FM280700 26007KT 6SM BR BKN025
     FM280900 27007KT 6SM BR BKN015
     FM281400 27010G15KT P6SM SCT020
     FM281800 29011G16KT P6SM VCTS BKN035CB
     FM282100 30009G14KT P6SM BKN035
     FM290100 33005KT P6SM BKN070
      AMD NOT SKED=



000
FTUS41 KRLX 280500
TAFCRW
TAF
KCRW 280538Z 2806/2906 23009KT P6SM FEW019 OVC090
     FM280800 27008KT 6SM BR BKN020
     FM281400 27010G15KT P6SM BKN025
     FM281600 29011G16KT P6SM BKN040
     FM282300 31007KT P6SM BKN035
     FM290300 VRB03KT 5SM BR BKN040=



000
FTUS41 KRLX 280500
TAFHTS
TAF
KHTS 280538Z 2806/2906 21005KT P6SM SCT090
     FM281500 28010KT P6SM BKN030
     FM281700 29010G15KT P6SM BKN040
     FM290000 32006KT P6SM SCT060
     FM290300 VRB03KT 5SM BR SCT150=



000
FTUS41 KRLX 280500
TAFBKW
TAF
KBKW 280538Z 2806/2906 25010KT 6SM -SHRA VCTS SCT027CB SCT050
      BKN070
     FM280900 28010KT 5SM BR BKN025
     FM281400 29011G18KT P6SM BKN035
     FM282000 31012G19KT P6SM VCSH BKN035
     FM282300 32008KT P6SM BKN050=



000
FTUS41 KRLX 280500
TAFEKN
TAF
KEKN 280538Z 2806/2906 22007KT 6SM -SHRA SCT021 BKN035 OVC070
     FM280730 27010G15KT P6SM BKN017
     FM281500 28012G18KT P6SM BKN025
     FM281700 28012G18KT P6SM VCTS BKN035CB
     FM281900 28011G17KT 4SM SHRA VCTS BKN035CB
     FM282300 29007KT P6SM BKN040
     FM290500 30003KT 6SM BR BKN050=



000
FTUS41 KRLX 280500
TAFCKB
TAF
KCKB 280538Z 2806/2906 00000KT P6SM FEW016 SCT023 SCT035
     FM280700 25008KT 6SM BR BKN015
     FM281500 26011G16KT P6SM BKN025
     FM281800 26011G16KT P6SM VCTS BKN035CB
     FM281900 27010G16KT 5SM SHRA VCTS BKN025CB
     FM282200 29007KT P6SM BKN040
     FM290300 31004KT 5SM BR BKN060=



000
FTUS41 KRLX 280300 AAB
TAFCRW
TAF AMD
KCRW 280314Z 2803/2824 24005KT P6SM VCTS FEW025 BKN050CB BKN100
      TEMPO 2803/2804 2SM -TSRA BKN025CB
     FM280400 26006KT P6SM BKN035
     FM280900 26006KT P6SM BKN025
     FM281700 29008KT P6SM BKN035=



000
FTUS41 KRLX 280200 AAA
TAFPKB
TAF AMD
KPKB 280246Z 2803/2824 26009KT P6SM SCT010 BKN040
     FM280500 28007KT P6SM BKN045
     FM280800 27007KT P6SM BKN020
     FM281800 28009KT P6SM -SHRA BKN035
     FM282100 30008KT P6SM BKN035=



000
FTUS41 KRLX 280200 AAB
TAFEKN
TAF AMD
KEKN 280246Z 2803/2824 22007KT P6SM BKN060
     FM280600 25007KT P6SM BKN030
     FM282000 27009KT P6SM -SHRA BKN040=



000
FTUS41 KRLX 280200 AAA
TAFCKB
TAF AMD
KCKB 280246Z 2803/2824 20006KT P6SM BKN060
     FM280900 27008KT P6SM BKN025
     FM281700 27010G15KT P6SM -SHRA BKN035=



000
FTUS41 KRLX 280200 AAA
TAFHTS
TAF AMD
KHTS 280246Z 2803/2824 29020G30KT 1SM +TSRA BKN020CB OVC060
     FM280310 28007KT 5SM BR SCT020 OVC060
     FM280400 27007KT P6SM BKN060
     FM281100 27005KT P6SM BKN025=



000
FTUS41 KRLX 280200 AAA
TAFBKW
TAF AMD
KBKW 280246Z 2803/2824 25010G18KT P6SM SCT025
      TEMPO 2803/2804 3SM -TSRA BKN030CB OVC060
     FM280600 29009KT P6SM SCT020 BKN100
     FM281000 29011G17KT P6SM BKN030
     FM281500 31010G15KT P6SM SCT060=



000
FTUS41 KRLX 280200 AAA
TAFCRW
TAF AMD
KCRW 280212Z 2802/2824 25010G16KT P6SM SCT035 BKN110
      TEMPO 2802/2803 20020G35KT 1SM +TSRA BKN020CB OVC050
     FM280300 27007KT P6SM VCTS BKN060CB
     FM280400 26006KT P6SM BKN035
     FM280900 26006KT P6SM BKN025
     FM281700 29008KT P6SM BKN035=



000
FTUS41 KRLX 280100 AAA
TAFEKN
TAF AMD
KEKN 280124Z 2801/2824 23007KT P6SM VCTS SCT045CB BKN110
      TEMPO 2801/2802 02020G35KT 1/2SM +TSRA BKN025CB OVC050
     FM280300 22007KT P6SM BKN060
     FM280600 25007KT P6SM BKN030
     FM282000 27009KT P6SM -SHRA BKN040=



000
FTUS41 KRLX 272300 RRA
TAFBKW
TAF
KBKW 272341Z 2800/2824 25010G18KT P6SM SCT025
     FM280600 29009KT P6SM SCT020 BKN100
     FM281000 29011G17KT P6SM BKN030
     FM281500 31010G15KT P6SM SCT060=



000
FTUS41 KRLX 272300 RRA
TAFHTS
TAF
KHTS 272341Z 2800/2824 23010G18KT P6SM BKN035 BKN110
     FM280200 00000KT P6SM SCT060
     FM280300 29006KT P6SM VCTS SCT035CB BKN090
     FM280500 27007KT P6SM SCT060
     FM281100 27005KT P6SM BKN025=



000
FTUS41 KRLX 272300 RRA
TAFPKB
TAF
KPKB 272341Z 2800/2824 23008KT P6SM SCT030 BKN060
      TEMPO 2800/2801 3SM TSRA BKN030CB OVC050
     FM280300 26009KT P6SM VCTS BKN035CB
     FM280500 28007KT P6SM BKN045
     FM280800 27007KT P6SM BKN020
     FM281800 28009KT P6SM -SHRA BKN035
     FM282100 30008KT P6SM BKN035=



000
FTUS41 KRLX 272300 RRA
TAFCRW
TAF
KCRW 272341Z 2800/2824 24010G16KT P6SM SCT035 BKN110
     FM280300 27007KT P6SM VCTS BKN060CB
     FM280500 26006KT P6SM BKN035
     FM280900 26006KT P6SM BKN025
     FM281700 29008KT P6SM BKN035=



000
FTUS41 KRLX 272300 RRA
TAFCKB
TAF
KCKB 272341Z 2800/2824 22008KT P6SM VCTS SCT035CB BKN100
      TEMPO 2800/2802 1SM TSRA BKN030CB OVC050
     FM280200 22006KT P6SM BKN060
     FM280900 27008KT P6SM BKN025
     FM281700 27010G15KT P6SM -SHRA BKN035=



000
FTUS41 KRLX 272300 RRA
TAFEKN
TAF
KEKN 272341Z 2800/2824 23007KT P6SM VCTS SCT045CB BKN110
      TEMPO 2800/2802 1SM TSRA BKN025CB OVC050
     FM280300 22007KT P6SM BKN060
     FM280600 25007KT P6SM BKN030
     FM282000 27009KT P6SM -SHRA BKN040=



000
FTUS41 KRLX 272100 AAC
TAFHTS
TAF AMD
KHTS 272103Z 2721/2818 23012G20KT P6SM SCT035 BKN100
     FM272200 23013G20KT P6SM VCTS BKN040CB BKN110
     FM280000 26009KT P6SM BKN045=



000
FTUS41 KRLX 272100 AAC
TAFCRW
TAF AMD
KCRW 272103Z 2721/2818 23012G18KT P6SM SCT035 SCT100
     FM272200 22010KT P6SM VCTS SCT035CB BKN110
     FM280000 25007KT P6SM BKN040=



000
FTUS41 KRLX 272100 AAC
TAFPKB
TAF AMD
KPKB 272103Z 2721/2818 24011G17KT P6SM SCT025 BKN100
     FM272200 20010G15KT P6SM VCTS BKN040CB BKN110
     FM280000 27009KT P6SM BKN040
     FM281300 30009KT P6SM BKN025
     FM281500 28010KT P6SM VCTS BKN025CB
     FM281700 28010KT P6SM -SHRA VCTS BKN030CB=



000
FTUS41 KRLX 272100 AAC
TAFEKN
TAF AMD
KEKN 272103Z 2721/2818 25011G17KT P6SM SCT025 SCT110
     FM272300 25010G15KT P6SM VCTS SCT025CB BKN110
     FM280100 23007KT P6SM BKN040
     FM280600 28010KT P6SM BKN035
     FM281600 29010KT P6SM VCTS BKN020CB=



000
FTUS41 KRLX 272100 AAC
TAFCKB
TAF AMD
KCKB 272103Z 2721/2818 23011G17KT P6SM SCT030 SCT110
     FM272200 23009KT P6SM VCTS SCT030CB BKN110
     FM280100 23006KT P6SM BKN040
     FM281400 29010KT P6SM BKN020
     FM281500 29010KT P6SM VCTS BKN020CB
     FM281700 27010KT P6SM -SHRA VCTS BKN025CB=



000
FTUS41 KRLX 272100 AAC
TAFBKW
TAF AMD
KBKW 272103Z 2721/2818 23012G24KT P6SM VCTS SCT025CB SCT090
      TEMPO 2722/2724 3SM TSRA BKN025CB OVC090
     FM280000 27007KT P6SM BKN040
     FM281400 29011KT P6SM BKN025=



000
FTUS41 KRLX 272000 AAB
TAFPKB
TAF AMD
KPKB 272014Z 2720/2818 23011G17KT P6SM SCT025 BKN100
     FM272200 20010G15KT P6SM VCTS BKN040CB BKN110
     FM280300 27009KT P6SM BKN040
     FM281300 30009KT P6SM BKN025
     FM281500 28010KT P6SM VCTS BKN025CB
     FM281700 28010KT P6SM -SHRA VCTS BKN030CB=



000
FTUS41 KRLX 272000 AAB
TAFEKN
TAF AMD
KEKN 272014Z 2720/2818 18011G17KT P6SM SCT025 SCT110
     FM272200 24010G15KT P6SM SCT025 BKN110
     FM280000 23009KT 5SM TSRA BR BKN045CB
     FM280100 23008KT 6SM TSRA BR BKN045CB
     FM280300 23007KT P6SM BKN040
     FM280600 28010KT P6SM BKN035
     FM281600 29010KT P6SM VCTS BKN020CB=



000
FTUS41 KRLX 272000 AAB
TAFCRW
TAF AMD
KCRW 272014Z 2720/2818 21012G18KT P6SM SCT035 SCT100
     FM272200 22010KT P6SM VCTS SCT035CB BKN110
     FM280300 25007KT P6SM BKN040=



000
FTUS41 KRLX 272000 AAB
TAFCKB
TAF AMD
KCKB 272014Z 2720/2818 20011G17KT P6SM SCT030 SCT110
     FM272200 20009KT P6SM VCTS SCT030CB BKN110
     FM280300 20006KT P6SM BKN040
     FM281400 29010KT P6SM BKN020
     FM281500 29010KT P6SM VCTS BKN020CB
     FM281700 27010KT P6SM -SHRA VCTS BKN025CB=



000
FTUS41 KRLX 272000 AAB
TAFBKW
TAF AMD
KBKW 272014Z 2720/2818 23012G18KT P6SM VCTS SCT025CB SCT090
      TEMPO 2722/2724 3SM TSRA BKN025CB OVC090
     FM280300 27007KT P6SM BKN040
     FM281400 29011KT P6SM BKN025=



000
FTUS41 KRLX 272000 AAB
TAFHTS
TAF AMD
KHTS 272014Z 2720/2818 17012G20KT P6SM SCT035 BKN100
     FM272200 21013G20KT P6SM VCTS BKN040CB BKN110
     FM280300 26009KT P6SM BKN045=



000
FTUS41 KRLX 272000 CCA
TAFHTS
TAF COR
KHTS 272014Z 2720/2818 20012G20KT P6SM SCT035 BKN100
     FM272200 21013G20KT P6SM VCTS BKN040CB BKN110
     FM280300 26009KT P6SM BKN045=



000
FTUS41 KRLX 271800 AAA
TAFBKW
TAF AMD
KBKW 271805Z 2718/2818 23012G18KT P6SM VCTS BKN015CB
      TEMPO 2718/2720 3SM TSRA
     FM272200 23013G20KT 3SM TSRA BR BKN045CB
     FM280000 23008KT 5SM TSRA BR BKN045CB
     FM280100 24008KT P6SM VCTS BKN045CB
     FM280300 27007KT P6SM BKN040
     FM281400 29011KT P6SM BKN025=



000
FTUS41 KRLX 271800 AAA
TAFEKN
TAF AMD
KEKN 271803Z 2718/2818 26011G17KT P6SM SCT025
     FM272000 26011G17KT P6SM VCTS SCT025CB BKN045
      TEMPO 2720/2722 3SM -TSRA BKN025CB
     FM272200 24010G15KT 5SM TSRA BR BKN045CB
     FM280000 23009KT 5SM TSRA BR BKN045CB
     FM280100 23008KT 6SM TSRA BR BKN045CB
     FM280300 23007KT P6SM BKN040
     FM280600 28010KT P6SM BKN035
     FM281600 29010KT P6SM VCTS BKN020CB=



000
FTUS41 KRLX 271800 AAA
TAFCKB
TAF AMD
KCKB 271801Z 2718/2818 24011G17KT P6SM BKN025
     FM272000 24011G17KT 5SM +TSRA BR BKN025CB
     FM272300 20009KT 5SM +TSRA BR BKN045CB
     FM280000 19008KT 6SM BR VCTS BKN045CB
     FM280300 20006KT P6SM BKN040
     FM281400 29010KT P6SM BKN020
     FM281500 29010KT P6SM VCTS BKN020CB
     FM281700 27010KT P6SM -SHRA VCTS BKN025CB=



000
FTUS41 KRLX 271800 AAA
TAFPKB
TAF AMD
KPKB 271800Z 2718/2818 20011G17KT P6SM VCTS SCT020CB BKN100
      TEMPO 2718/2720 3SM -TSRA BKN020CB
     FM272200 20010G15KT 6SM BR VCTS BKN040CB
     FM280200 25009KT P6SM VCTS BKN040CB
     FM280300 27009KT P6SM BKN040
     FM280600 26005KT P6SM BKN035
     FM281300 30009KT P6SM BKN025
     FM281500 28010KT P6SM VCTS BKN025CB
     FM281700 28010KT P6SM -SHRA VCTS BKN030CB=



000
FTUS41 KRLX 271700 AAA
TAFHTS
TAF AMD
KHTS 271759Z 2718/2818 17012G20KT 6SM BR VCTS SCT025CB BKN100
      TEMPO 2718/2720 3SM -TSRA BKN025CB
     FM272100 21013G20KT 5SM BR VCTS BKN040CB
     FM272200 23011G17KT 6SM BR VCTS BKN040CB
     FM272300 27011G16KT P6SM VCTS BKN045CB
     FM280300 26009KT P6SM BKN045=



000
FTUS41 KRLX 271700 AAA
TAFCRW
TAF AMD
KCRW 271757Z 2718/2818 20012G18KT P6SM VCTS SCT025CB BKN040
      TEMPO 2718/2720 3SM -TSRA BKN025CB
     FM272300 23009KT 6SM BR VCTS BKN045CB
     FM280300 25007KT P6SM BKN040=



000
FTUS41 KRLX 271700
TAFCRW
TAF
KCRW 271738Z 2718/2818 20012G18KT 4SM +TSRA BR BKN045CB
     FM272300 23009KT 6SM BR VCTS BKN045CB
     FM280300 25007KT P6SM BKN040=



000
FTUS41 KRLX 271700
TAFPKB
TAF
KPKB 271738Z 2718/2818 20011G17KT 4SM +TSRA BR BKN040CB
     FM272200 20010G15KT 6SM BR VCTS BKN040CB
     FM280200 25009KT P6SM VCTS BKN040CB
     FM280300 27009KT P6SM BKN040
     FM280600 26005KT P6SM BKN035
     FM281300 30009KT P6SM BKN025
     FM281500 28010KT P6SM VCTS BKN025CB
     FM281700 28010KT P6SM -SHRA VCTS BKN030CB=



000
FTUS41 KRLX 271700
TAFBKW
TAF
KBKW 271738Z 2718/2818 23012G18KT P6SM +TSRA BKN045CB
     FM272200 23013G20KT 5SM +TSRA BR BKN045CB
     FM280000 23008KT 5SM TSRA BR BKN045CB
     FM280100 24008KT P6SM VCTS BKN045CB
     FM280300 27007KT P6SM BKN040
     FM281400 29011KT P6SM BKN025=



000
FTUS41 KRLX 271700
TAFEKN
TAF
KEKN 271738Z 2718/2818 26011G17KT P6SM VCTS BKN045CB
     FM271900 26011G17KT P6SM +TSRA BKN045CB
     FM272200 24010G15KT 5SM +TSRA BR BKN045CB
     FM280000 23009KT 5SM TSRA BR BKN045CB
     FM280100 23008KT 6SM TSRA BR BKN045CB
     FM280300 23007KT P6SM BKN040
     FM280600 28010KT P6SM BKN035
     FM281600 29010KT P6SM VCTS BKN020CB=



000
FTUS41 KRLX 271700
TAFHTS
TAF
KHTS 271738Z 2718/2818 21013G20KT 4SM +TSRA BR BKN045CB
     FM272100 21013G20KT 5SM BR VCTS BKN040CB
     FM272200 23011G17KT 6SM BR VCTS BKN040CB
     FM272300 27011G16KT P6SM VCTS BKN045CB
     FM280300 26009KT P6SM BKN045=



000
FTUS41 KRLX 271700
TAFCKB
TAF
KCKB 271738Z 2718/2818 24011G17KT P6SM +TSRA BKN045CB
     FM272000 24011G17KT 5SM +TSRA BR BKN050CB
     FM272300 20009KT 5SM +TSRA BR BKN045CB
     FM280000 19008KT 6SM BR VCTS BKN045CB
     FM280300 20006KT P6SM BKN040
     FM281400 29010KT P6SM BKN020
     FM281500 29010KT P6SM VCTS BKN020CB
     FM281700 27010KT P6SM -SHRA VCTS BKN025CB=



000
FTUS41 KRLX 271100
TAFCKB
TAF
KCKB 271127Z 2712/2812 19004KT P6SM SCT030 BKN100
     FM271500 22008KT P6SM VCTS BKN050CB
     FM271800 24010G20KT 4SM +TSRA BKN040CB
     FM272300 25010G16KT P6SM -SHRA BKN040
     FM280300 28008KT P6SM BKN035
     FM280700 28006KT P6SM BKN025=



000
FTUS41 KRLX 271100
TAFBKW
TAF
KBKW 271127Z 2712/2812 22005KT P6SM SCT008 BKN015
      TEMPO 2712/2713 -SHRA BKN008
     FM271300 22008KT P6SM BKN025
     FM271500 23010KT P6SM VCTS SCT040CB BKN100
     FM271900 24012G20KT 4SM +TSRA BKN035CB
     FM280000 26009KT P6SM BKN040
     FM280800 28006KT P6SM BKN025=



000
FTUS41 KRLX 271100
TAFHTS
TAF
KHTS 271127Z 2712/2812 18006KT P6SM SCT040 BKN100
     FM271400 22008KT P6SM VCTS BKN050CB
     FM271600 24010G20KT 4SM +TSRA BKN040CB
     FM272100 26010G16KT P6SM BKN040
     FM280200 27007KT P6SM BKN035=



000
FTUS41 KRLX 271100
TAFEKN
TAF
KEKN 271127Z 2712/2812 23004KT P6SM BKN030 BKN100
      TEMPO 2712/2714 SCT030
     FM271400 24008KT P6SM SCT040
     FM271900 25012G20KT 4SM +TSRA BKN035CB
     FM280000 26009KT P6SM -SHRA BKN040
     FM280600 28006KT P6SM BKN025=



000
FTUS41 KRLX 271100
TAFCRW
TAF
KCRW 271127Z 2712/2812 20005KT P6SM SCT040 BKN100
     FM271500 22008KT P6SM VCTS BKN050CB
     FM271700 24010G20KT 4SM +TSRA BKN040CB
     FM272200 26009KT P6SM BKN040
     FM280700 28006KT P6SM BKN025=



000
FTUS41 KRLX 271100
TAFPKB
TAF
KPKB 271127Z 2712/2812 20006KT P6SM SCT040 BKN100
     FM271400 22008KT P6SM VCTS BKN050CB
     FM271600 24010G20KT 4SM +TSRA BKN040CB
     FM272100 25010G16KT P6SM BKN045
     FM280300 27008KT P6SM BKN035
     FM280600 29006KT P6SM BKN025
      AMD NOT SKED=



000
FTUS41 KRLX 271000 AAB
TAFBKW
TAF AMD
KBKW 271055Z 2711/2806 22007KT P6SM SCT008 BKN015
      TEMPO 2711/2713 -SHRA BKN008
     FM271300 22006KT P6SM BKN025
     FM271500 23010KT P6SM VCTS SCT040CB BKN100
     FM271900 24012G20KT 5SM TSRA BKN035CB
     FM280000 25010KT P6SM BKN040
     FM280400 28008KT P6SM BKN035=



000
FTUS41 KRLX 270900 AAA
TAFCKB
TAF AMD
KCKB 270904Z 2709/2806 17004KT P6SM SCT030 BKN100
      TEMPO 2709/2712 BKN030
     FM271500 22008KT P6SM VCTS BKN050CB
     FM271900 24010G20KT 5SM TSRA BKN040CB
     FM272300 25010G20KT P6SM BKN050
     FM280300 28008KT P6SM BKN035=



000
FTUS41 KRLX 270900 AAA
TAFBKW
TAF AMD
KBKW 270904Z 2709/2806 22007KT P6SM SCT025 BKN060
      TEMPO 2709/2712 -SHRA BKN015
     FM271500 23009KT P6SM VCTS SCT040CB BKN100
     FM271900 24012G20KT 5SM TSRA BKN035CB
     FM280000 25010KT P6SM BKN040
     FM280400 28008KT P6SM BKN035=



000
FTUS41 KRLX 270900 AAA
TAFHTS
TAF AMD
KHTS 270904Z 2709/2806 22006KT P6SM SCT040 BKN100
     FM271400 22008KT P6SM VCTS BKN050CB
     FM271600 24010G20KT 5SM TSRA BKN040CB
     FM272200 25010G20KT P6SM BKN050
     FM280300 29008KT P6SM BKN035=



000
FTUS41 KRLX 270900 AAA
TAFCRW
TAF AMD
KCRW 270904Z 2709/2806 20005KT P6SM SCT040 BKN100
     FM271500 22008KT P6SM VCTS BKN050CB
     FM271800 24010G20KT 5SM TSRA BKN040CB
     FM272300 25010G20KT P6SM BKN050
     FM280300 28008KT P6SM BKN035=



000
FTUS41 KRLX 270900 AAA
TAFPKB
TAF AMD
KPKB 270904Z 2709/2806 22006KT P6SM SCT040 BKN100
     FM271400 22008KT P6SM VCTS BKN050CB
     FM271600 24010G20KT 5SM TSRA BKN040CB
     FM272200 25010G20KT P6SM BKN050
     FM280300 29008KT P6SM BKN035
      AMD NOT SKED=



000
FTUS41 KRLX 270900 AAA
TAFEKN
TAF AMD
KEKN 270904Z 2709/2806 VRB03KT 6SM BR BKN028 BKN060
      TEMPO 2709/2712 4SM BR SCT028
     FM271200 23004KT P6SM SCT030 BKN100
     FM271500 24008KT P6SM VCTS BKN040CB
     FM271900 25012G20KT 5SM TSRA BKN035CB
     FM280100 24010KT P6SM BKN040
     FM280400 28006KT P6SM BKN035=



000
FTUS41 KRLX 270500 CCA
TAFPKB
TAF COR
KPKB 270555Z 2706/2806 21004KT P6SM VCTS SCT040CB BKN060
      TEMPO 2706/2708 5SM SHRA BR BKN035
     FM270800 22006KT P6SM SCT040 BKN100
     FM271400 22008KT P6SM VCTS BKN050CB
     FM271700 24010G20KT 5SM TSRA BKN040CB
     FM272200 25010G20KT P6SM BKN050
     FM280300 29008KT P6SM BKN035
      AMD NOT SKED=



000
FTUS41 KRLX 270500 CCA
TAFHTS
TAF COR
KHTS 270554Z 2706/2806 21004KT P6SM SHRA VCTS BKN040 BKN050CB
      TEMPO 2706/2709 3SM SHRA BR BKN025
     FM271000 22006KT P6SM SCT040 BKN100
     FM271400 22008KT P6SM VCTS BKN050CB
     FM271700 24010G20KT 5SM TSRA BKN040CB
     FM272200 25010G20KT P6SM BKN050
     FM280300 29008KT P6SM BKN035=



000
FTUS41 KRLX 270500 CCA
TAFCRW
TAF COR
KCRW 270551Z 2706/2806 18003KT P6SM VCTS SCT040 BKN050CB
      TEMPO 2706/2710 3SM SHRA BKN025
     FM271200 20004KT P6SM SCT040 BKN100
     FM271500 22008KT P6SM VCTS BKN050CB
     FM271900 24010G20KT 5SM TSRA BKN040CB
     FM272300 25010G20KT P6SM BKN050
     FM280300 28008KT P6SM BKN035=



000
FTUS41 KRLX 270500 RRA
TAFBKW
TAF
KBKW 270543Z 2706/2806 21006KT P6SM VCTS SCT040CB BKN050
      TEMPO 2706/2708 3SM TSRA BR BKN040CB
     FM270800 22006KT P6SM VCTS SCT040CB BKN060
      TEMPO 2708/2712 2SM TSRA BR BKN025CB
     FM271200 23008KT P6SM VCTS SCT040CB BKN100
     FM272000 24010G20KT 5SM TSRA BKN040CB
     FM280000 25010G20KT P6SM BKN050
     FM280400 28008KT P6SM BKN035=



000
FTUS41 KRLX 270500 RRA
TAFPKB
TAF
KPKB 270543Z 2706/2806 21004KT P6SM VCTS SCT040CB BKN060
      TEMPO 2706/2708 2SM TSRA BR BKN025CB
     FM270800 22006KT P6SM SCT040 BKN100
     FM271400 22008KT P6SM VCTS BKN050CB
     FM271700 24010G20KT 5SM TSRA BKN040CB
     FM272200 25010G20KT P6SM BKN050
     FM280300 29008KT P6SM BKN035
      AMD NOT SKED=



000
FTUS41 KRLX 270500 RRA
TAFHTS
TAF
KHTS 270543Z 2706/2806 21004KT P6SM VCTS SCT040CB BKN060
      TEMPO 2706/2708 2SM TSRA BR BKN025CB
     FM270800 22006KT P6SM SCT040 BKN100
     FM271400 22008KT P6SM VCTS BKN050CB
     FM271700 24010G20KT 5SM TSRA BKN040CB
     FM272200 25010G20KT P6SM BKN050
     FM280300 29008KT P6SM BKN035=



000
FTUS41 KRLX 270500 RRA
TAFCKB
TAF
KCKB 270543Z 2706/2806 18003KT P6SM VCTS SCT040CB BKN060
      TEMPO 2706/2710 2SM TSRA BR BKN025CB
     FM271200 20004KT P6SM SCT040 BKN100
     FM271500 22008KT P6SM VCTS BKN050CB
     FM271900 24010G20KT 5SM TSRA BKN040CB
     FM272300 25010G20KT P6SM BKN050
     FM280300 28008KT P6SM BKN035=



000
FTUS41 KRLX 270500 RRA
TAFEKN
TAF
KEKN 270543Z 2706/2806 21004KT P6SM VCTS SCT040CB BKN050
      TEMPO 2706/2708 3SM TSRA BR BKN040CB
     FM270800 VRB03KT P6SM VCTS SCT040CB BKN060
      TEMPO 2708/2712 2SM TSRA BR BKN025CB
     FM271200 VRB03KT P6SM VCTS SCT040CB BKN100
     FM272000 24010G20KT 5SM TSRA BKN040CB
     FM280000 25010G20KT P6SM BKN050
     FM280400 28008KT P6SM BKN035=



000
FTUS41 KRLX 270500 RRA
TAFCRW
TAF
KCRW 270543Z 2706/2806 18003KT P6SM VCTS SCT040CB BKN060
      TEMPO 2706/2710 2SM TSRA BR BKN025CB
     FM271200 20004KT P6SM SCT040 BKN100
     FM271500 22008KT P6SM VCTS BKN050CB
     FM271900 24010G20KT 5SM TSRA BKN040CB
     FM272300 25010G20KT P6SM BKN050
     FM280300 28008KT P6SM BKN035=



000
FTUS41 KRLX 270400 AAB
TAFCRW
TAF AMD
KCRW 270416Z 2704/2724 00000KT P6SM VCTS SCT040CB BKN060
      TEMPO 2704/2708 2SM TSRA BR BKN025CB
     FM271200 VRB03KT P6SM SCT040 BKN100
     FM271500 21006KT P6SM SCT040
     FM271900 18009G16KT P6SM +TSRA SCT045CB BKN100=



000
FTUS41 KRLX 270400 AAB
TAFEKN
TAF AMD
KEKN 270415Z 2704/2724 00000KT P6SM VCTS SCT040CB BKN050
      TEMPO 2704/2708 4SM TSRA BR BKN040CB
     FM270800 VRB03KT P6SM VCTS SCT040CB BKN060
      TEMPO 2708/2711 2SM TSRA BR BKN025CB
     FM271100 VRB03KT P6SM SCT040 BKN100
     FM271500 24007KT P6SM SCT035
     FM272000 22008G16KT P6SM +TSRA SCT045CB BKN100=



000
FTUS41 KRLX 270300 AAB
TAFCKB
TAF AMD
KCKB 270358Z 2704/2724 VRB03KT P6SM VCTS SCT045CB BKN090
      TEMPO 2704/2706 4SM TSRA BR BKN035CB
     FM270600 VRB03KT P6SM VCTS SCT040CB BKN060
      TEMPO 2706/2710 2SM TSRA BR BKN025CB
     FM271000 VRB03KT P6SM SCT040 BKN100
     FM271500 21007KT P6SM SCT035
     FM271900 22008G16KT P6SM +TSRA SCT045CB BKN100=



000
FTUS41 KRLX 270300 AAB
TAFHTS
TAF AMD
KHTS 270356Z 2704/2724 21004KT P6SM VCTS SCT040CB BKN060
      TEMPO 2704/2708 2SM TSRA BR BKN025CB
     FM270800 22006KT P6SM SCT040 BKN100
     FM271600 19008G14KT P6SM SCT035
     FM271800 19010G18KT P6SM +TSRA SCT045CB BKN100
     FM272200 21010G18KT P6SM SCT050=



000
FTUS41 KRLX 270300 AAB
TAFPKB
TAF AMD
KPKB 270355Z 2704/2724 21004KT P6SM VCTS SCT040CB BKN060
      TEMPO 2705/2709 2SM TSRA BR BKN025CB
     FM270900 22006KT P6SM SCT040 BKN100
     FM271500 20008KT P6SM SCT035
     FM271800 19010G18KT P6SM +TSRA SCT045CB BKN100
     FM272200 20009G16KT P6SM SCT045
      AMD NOT SKED=



000
FTUS41 KRLX 270200 AAA
TAFBKW
TAF AMD
KBKW 270244Z 2703/2724 22005KT P6SM SCT250
     FM270700 23005KT P6SM VCTS SCT040CB BKN060
      TEMPO 2707/2710 2SM TSRA BR BKN025CB
     FM271000 24005KT P6SM SCT040 BKN100
     FM271500 22007KT P6SM SCT045
     FM272000 21011G20KT P6SM +TSRA SCT045CB BKN100=



000
FTUS41 KRLX 270200 AAA
TAFEKN
TAF AMD
KEKN 270241Z 2703/2724 00000KT P6SM SCT045 BKN090
      TEMPO 2704/2705 4SM SHRA BR BKN045
     FM270800 VRB03KT P6SM VCTS SCT040CB BKN060
      TEMPO 2708/2711 2SM TSRA BR BKN025CB
     FM271100 VRB03KT P6SM SCT040 BKN100
     FM271500 24007KT P6SM SCT035
     FM272000 22008G16KT P6SM +TSRA SCT045CB BKN100=



000
FTUS41 KRLX 270200 AAA
TAFCKB
TAF AMD
KCKB 270240Z 2703/2724 VRB03KT P6SM SCT045 BKN090
      TEMPO 2703/2704 4SM SHRA BR BKN045
     FM270700 VRB03KT P6SM VCTS SCT040CB BKN060
      TEMPO 2707/2710 2SM TSRA BR BKN025CB
     FM271000 VRB03KT P6SM SCT040 BKN100
     FM271500 21007KT P6SM SCT035
     FM271900 22008G16KT P6SM +TSRA SCT045CB BKN100=



000
FTUS41 KRLX 270200 AAA
TAFCRW
TAF AMD
KCRW 270238Z 2703/2724 00000KT P6SM BKN090
     FM270600 00000KT P6SM VCTS SCT040CB BKN060
      TEMPO 2706/2709 2SM TSRA BR BKN025CB
     FM270900 VRB03KT P6SM SCT040 BKN100
     FM271500 21006KT P6SM SCT040
     FM271900 18009G16KT P6SM +TSRA SCT045CB BKN100=



000
FTUS41 KRLX 270200 AAA
TAFPKB
TAF AMD
KPKB 270237Z 2703/2724 20003KT P6SM BKN090
     FM270600 21004KT P6SM VCTS SCT040CB BKN060
      TEMPO 2706/2709 2SM TSRA BR BKN025CB
     FM270900 22006KT P6SM SCT040 BKN100
     FM271500 20008KT P6SM SCT035
     FM271800 19010G18KT P6SM +TSRA SCT045CB BKN100
     FM272200 20009G16KT P6SM SCT045
      AMD NOT SKED=



000
FTUS41 KRLX 270200 AAA
TAFHTS
TAF AMD
KHTS 270236Z 2703/2724 20003KT P6SM BKN090
     FM270500 21004KT P6SM VCTS SCT040CB BKN060
      TEMPO 2705/2708 2SM TSRA BR BKN025CB
     FM270800 22006KT P6SM SCT040 BKN100
     FM271600 19008G14KT P6SM SCT035
     FM271800 19010G18KT P6SM +TSRA SCT045CB BKN100
     FM272200 21010G18KT P6SM SCT050=



000
FTUS41 KRLX 262300 RRA
TAFHTS
TAF
KHTS 262344Z 2700/2724 VRB03KT P6SM SCT100 SCT250
     FM270900 21004KT P6SM VCTS SCT040CB BKN060
     FM271100 22005KT 5SM TSRA BR BKN040CB
     FM271300 22006KT P6SM SCT040 BKN060
     FM271600 19008G14KT P6SM SCT035
     FM271800 19010G18KT P6SM +TSRA SCT045CB BKN100
     FM272200 21010G18KT P6SM SCT050=



000
FTUS41 KRLX 262300 RRA
TAFPKB
TAF
KPKB 262344Z 2700/2724 VRB03KT P6SM SCT035 BKN080
     FM270200 22003KT P6SM SCT100 SCT250
     FM271500 20008KT P6SM SCT035
     FM271800 19010G18KT P6SM +TSRA SCT045CB BKN100
     FM272200 20009G16KT P6SM SCT045
      AMD NOT SKED=



000
FTUS41 KRLX 262300 RRA
TAFBKW
TAF
KBKW 262344Z 2700/2724 23004KT P6SM SCT250
     FM271300 25005KT P6SM VCTS SCT040CB BKN060
     FM271500 24008KT P6SM TSRA BKN040CB
     FM271700 21006KT P6SM SCT045
     FM272000 21011G20KT P6SM +TSRA SCT045CB BKN100=



000
FTUS41 KRLX 262300 RRA
TAFCRW
TAF
KCRW 262344Z 2700/2724 00000KT P6SM SCT100 BKN250
     FM271100 22004KT P6SM VCTS SCT040CB BKN060
     FM271300 00000KT 5SM TSRA BR BKN040CB
     FM271500 21006KT P6SM SCT040 BKN060
     FM271700 18008KT P6SM SCT040
     FM271900 18009G16KT P6SM +TSRA SCT045CB BKN100=



000
FTUS41 KRLX 262300 RRA
TAFCKB
TAF
KCKB 262344Z 2700/2724 22005KT P6SM SCT025 BKN060
      TEMPO 2700/2701 2SM TSRA BR BKN025CB
     FM270100 00000KT P6SM SCT035 BKN080
     FM270200 VRB03KT P6SM SCT100 SCT250
     FM271500 21007KT P6SM SCT035
     FM271900 22008G16KT P6SM +TSRA SCT045CB BKN100=



000
FTUS41 KRLX 262300 RRA
TAFEKN
TAF
KEKN 262344Z 2700/2724 00000KT P6SM SCT025 BKN060
      TEMPO 2700/2701 2SM TSRA BR BKN025CB
     FM270100 00000KT P6SM SCT035 BKN080
     FM270300 00000KT P6SM SCT100 SCT250
     FM271500 24007KT P6SM SCT035
     FM272000 22008G16KT P6SM +TSRA SCT045CB BKN100=



000
FTUS41 KRLX 262200 AAA
TAFPKB
TAF AMD
KPKB 262232Z 2623/2718 21008KT P6SM SCT025 BKN050
      TEMPO 2623/2624 2SM TSRA BR BKN025CB
     FM270100 21005KT P6SM BKN080
     FM270700 22005KT 5SM TSRA BR BKN030CB
     FM271700 18008G14KT 2SM TSRA BR BKN015CB
      AMD NOT SKED=



000
FTUS41 KRLX 262200 AAA
TAFCKB
TAF AMD
KCKB 262218Z 2622/2718 22006KT P6SM BKN050
      TEMPO 2622/2701 2SM TSRA BR BKN025CB
     FM270500 21004KT P6SM VCTS BKN040CB
     FM270800 21004KT 4SM BR VCTS BKN030CB
     FM271000 21005KT 3SM TSRA BR BKN025CB
     FM271500 20008KT 4SM TSRA BR BKN025CB=



000
FTUS41 KRLX 261700
TAFEKN
TAF
KEKN 261740Z 2618/2718 26005KT P6SM SCT050 BKN080
     FM262100 26004KT P6SM SCT060
     FM270700 VRB03KT P6SM VCTS BKN050CB
     FM270800 VRB03KT 5SM BR VCTS BKN045CB
     FM271000 25004KT 4SM TSRA BR BKN025CB=



000
FTUS41 KRLX 261700
TAFBKW
TAF
KBKW 261740Z 2618/2718 24006KT P6SM SCT045
     FM270600 26006KT P6SM BKN050
     FM270900 24005KT P6SM TSRA BKN030CB
     FM271200 24006KT 3SM TSRA BKN020CB=



000
FTUS41 KRLX 261700
TAFPKB
TAF
KPKB 261740Z 2618/2718 22009G14KT P6SM SCT045
     FM262200 23007G12KT P6SM SCT050
     FM270200 21005KT P6SM VCTS BKN080CB
     FM270500 22005KT 5SM TSRA BR BKN030CB
     FM271700 18008G14KT 2SM TSRA BR BKN015CB
      AMD NOT SKED=



000
FTUS41 KRLX 261700
TAFCRW
TAF
KCRW 261740Z 2618/2718 24007KT P6SM SCT050
     FM270000 24006KT P6SM BKN050
     FM270400 19003KT P6SM BKN080
     FM270800 16002KT 4SM SHRA BR VCTS BKN040CB
     FM271200 23005KT 1 1/2SM TSRA BR BKN012CB
     FM271300 22006KT 3SM TSRA BR BKN020CB=



000
FTUS41 KRLX 261700
TAFCKB
TAF
KCKB 261740Z 2618/2718 22007KT P6SM SCT050
     FM262200 22006KT P6SM BKN050
     FM270500 21004KT P6SM VCTS BKN040CB
     FM270800 21004KT 4SM BR VCTS BKN030CB
     FM271000 21005KT 3SM TSRA BR BKN025CB
     FM271500 20008KT 4SM TSRA BR BKN025CB=



000
FTUS41 KRLX 261700
TAFHTS
TAF
KHTS 261740Z 2618/2718 20008KT P6SM FEW050
     FM262200 24007G12KT P6SM SCT250
     FM270300 19003KT P6SM VCTS BKN040CB
     FM270600 17002KT 4SM SHRA VCTS BKN035CB
     FM271700 19009G16KT 3SM TSRA BR BKN020CB=



000
FTUS41 KRLX 261100
TAFBKW
TAF
KBKW 261129Z 2612/2712 23003KT P6SM BKN035
      TEMPO 2612/2613 BKN028
     FM261400 24007KT P6SM SCT045
     FM270500 19002KT P6SM BKN100
     FM271000 16002KT 5SM SHRA BR VCTS BKN050CB=



000
FTUS41 KRLX 261100
TAFPKB
TAF
KPKB 261129Z 2612/2712 20002KT P6SM SCT090
     FM261400 23007KT P6SM SCT050
     FM262300 22004KT P6SM SCT120
     FM270200 19003KT P6SM BKN080
     FM270500 17003KT 4SM SHRA VCTS BKN040CB
      AMD NOT SKED=



000
FTUS41 KRLX 261100
TAFCKB
TAF
KCKB 261129Z 2612/2712 13002KT P6SM SCT090
     FM261500 21007KT P6SM SCT050 SCT100
     FM262300 22004KT P6SM SCT120
     FM270400 19003KT P6SM BKN090
     FM270800 16002KT 4SM SHRA BR VCTS BKN045CB=



000
FTUS41 KRLX 261100
TAFEKN
TAF
KEKN 261129Z 2612/2712 19003KT 5SM BR BKN040 BKN100
      TEMPO 2612/2614 6SM BR SCT040
     FM261400 23007KT P6SM SCT045 SCT100
     FM270400 19003KT P6SM BKN090
     FM270900 16002KT 4SM SHRA BR VCTS BKN045CB=



000
FTUS41 KRLX 261100
TAFHTS
TAF
KHTS 261129Z 2612/2712 20002KT 4SM BR SCT100
      TEMPO 2612/2614 6SM BR
     FM261400 21007KT P6SM SCT050
     FM262300 22004KT P6SM SCT120
     FM270300 19003KT P6SM BKN090
     FM270600 17002KT 4SM SHRA VCTS BKN040CB=



000
FTUS41 KRLX 261100
TAFCRW
TAF
KCRW 261129Z 2612/2712 00000KT 6SM BR SCT100
     FM261400 21007KT P6SM SCT050 SCT100
     FM262300 22004KT P6SM SCT120
     FM270400 19003KT P6SM BKN080
     FM270800 16002KT 4SM SHRA BR VCTS BKN040CB=



000
FTUS41 KRLX 261000 AAB
TAFBKW
TAF AMD
KBKW 261048Z 2611/2706 00000KT P6SM SCT028 SCT120
      TEMPO 2611/2613 BKN028
     FM261500 23007KT P6SM SCT045
     FM270400 19002KT P6SM BKN100=



000
FTUS41 KRLX 261000 AAB
TAFEKN
TAF AMD
KEKN 261013Z 2610/2706 00000KT 5SM BR SCT002 BKN100
      TEMPO 2610/2612 3SM BR BKN002
     FM261300 19002KT P6SM BKN100
     FM261600 23007KT P6SM SCT045
     FM270400 19003KT P6SM BKN090=



    US Dept of Commerce
    National Oceanic and Atmospheric Administration
    National Weather Service
    1325 East West Highway
    Silver Spring, MD 20910
    Page Author: NWS Internet Services Team
Disclaimer
Information Quality
Credits
Glossary
Privacy Policy
Freedom of Information Act (FOIA)
About Us
Career Opportunities